sensor_id;sensor_type;location;lat;lon;timestamp;pressure;altitude;pressure_sealevel;temperature;humidity
76337;BME280;65157;50.082;18.178;2023-04-25T00:02:25;98240.39;;;10.57;78.65
76337;BME280;65157;50.082;18.178;2023-04-25T00:04:52;98240.67;;;10.55;78.19
76337;BME280;65157;50.082;18.178;2023-04-25T00:07:18;98237.84;;;10.55;77.61
76337;BME280;65157;50.082;18.178;2023-04-25T00:09:45;98239.22;;;10.56;77.36
76337;BME280;65157;50.082;18.178;2023-04-25T00:12:14;98240.38;;;10.57;76.96
76337;BME280;65157;50.082;18.178;2023-04-25T00:14:41;98243.34;;;10.55;76.57
76337;BME280;65157;50.082;18.178;2023-04-25T00:17:08;98242.77;;;10.53;75.83
76337;BME280;65157;50.082;18.178;2023-04-25T00:19:35;98242.60;;;10.49;75.26
76337;BME280;65157;50.082;18.178;2023-04-25T00:22:01;98242.77;;;10.47;74.16
76337;BME280;65157;50.082;18.178;2023-04-25T00:24:28;98243.88;;;10.43;73.83
76337;BME280;65157;50.082;18.178;2023-04-25T00:26:55;98243.15;;;10.40;73.68
76337;BME280;65157;50.082;18.178;2023-04-25T00:29:24;98247.49;;;10.35;73.36
76337;BME280;65157;50.082;18.178;2023-04-25T00:31:50;98246.20;;;10.30;73.50
76337;BME280;65157;50.082;18.178;2023-04-25T00:34:17;98246.00;;;10.24;73.40
76337;BME280;65157;50.082;18.178;2023-04-25T00:36:44;98244.70;;;10.19;73.73
76337;BME280;65157;50.082;18.178;2023-04-25T00:39:12;98247.77;;;10.15;73.77
76337;BME280;65157;50.082;18.178;2023-04-25T00:41:39;98242.38;;;10.10;73.85
76337;BME280;65157;50.082;18.178;2023-04-25T00:44:08;98249.59;;;10.14;74.29
76337;BME280;65157;50.082;18.178;2023-04-25T00:46:36;98250.26;;;10.15;74.18
76337;BME280;65157;50.082;18.178;2023-04-25T00:49:03;98254.45;;;10.08;74.28
76337;BME280;65157;50.082;18.178;2023-04-25T00:51:30;98261.20;;;10.05;74.22
76337;BME280;65157;50.082;18.178;2023-04-25T00:53:57;98261.96;;;10.00;74.19
76337;BME280;65157;50.082;18.178;2023-04-25T00:56:24;98263.02;;;9.97;74.25
76337;BME280;65157;50.082;18.178;2023-04-25T00:58:53;98263.39;;;9.97;74.29
76337;BME280;65157;50.082;18.178;2023-04-25T01:01:23;98266.50;;;9.95;74.26
76337;BME280;65157;50.082;18.178;2023-04-25T01:03:50;98267.70;;;9.92;73.99
76337;BME280;65157;50.082;18.178;2023-04-25T01:06:19;98271.98;;;9.91;73.99
76337;BME280;65157;50.082;18.178;2023-04-25T01:08:47;98275.45;;;9.89;73.92
76337;BME280;65157;50.082;18.178;2023-04-25T01:11:13;98269.41;;;9.84;73.99
76337;BME280;65157;50.082;18.178;2023-04-25T01:13:40;98280.61;;;9.85;74.22
76337;BME280;65157;50.082;18.178;2023-04-25T01:16:07;98284.36;;;9.84;74.41
76337;BME280;65157;50.082;18.178;2023-04-25T01:18:34;98287.27;;;9.83;74.39
76337;BME280;65157;50.082;18.178;2023-04-25T01:21:07;98292.09;;;9.82;74.50
76337;BME280;65157;50.082;18.178;2023-04-25T01:23:35;98290.27;;;9.80;74.60
76337;BME280;65157;50.082;18.178;2023-04-25T01:26:02;98288.23;;;9.78;74.46
76337;BME280;65157;50.082;18.178;2023-04-25T01:28:29;98290.78;;;9.77;74.50
76337;BME280;65157;50.082;18.178;2023-04-25T01:30:56;98293.95;;;9.77;74.41
76337;BME280;65157;50.082;18.178;2023-04-25T01:33:29;98298.70;;;9.77;74.14
76337;BME280;65157;50.082;18.178;2023-04-25T01:35:56;98298.54;;;9.76;74.08
76337;BME280;65157;50.082;18.178;2023-04-25T01:38:23;98299.80;;;9.76;74.16
76337;BME280;65157;50.082;18.178;2023-04-25T01:40:50;98298.05;;;9.73;74.30
76337;BME280;65157;50.082;18.178;2023-04-25T01:43:17;98294.59;;;9.68;74.37
76337;BME280;65157;50.082;18.178;2023-04-25T01:45:44;98299.47;;;9.69;74.51
76337;BME280;65157;50.082;18.178;2023-04-25T01:48:12;98303.45;;;9.67;74.56
76337;BME280;65157;50.082;18.178;2023-04-25T01:50:40;98300.34;;;9.66;74.61
76337;BME280;65157;50.082;18.178;2023-04-25T01:53:08;98300.08;;;9.68;74.63
76337;BME280;65157;50.082;18.178;2023-04-25T01:55:35;98301.17;;;9.66;74.63
76337;BME280;65157;50.082;18.178;2023-04-25T01:58:02;98304.48;;;9.67;74.80
76337;BME280;65157;50.082;18.178;2023-04-25T02:00:30;98304.31;;;9.68;74.74
76337;BME280;65157;50.082;18.178;2023-04-25T02:02:59;98302.90;;;9.67;75.05
76337;BME280;65157;50.082;18.178;2023-04-25T02:05:26;98303.02;;;9.65;75.04
76337;BME280;65157;50.082;18.178;2023-04-25T02:07:53;98298.28;;;9.58;74.96
76337;BME280;65157;50.082;18.178;2023-04-25T02:10:21;98305.99;;;9.59;74.83
76337;BME280;65157;50.082;18.178;2023-04-25T02:12:48;98307.88;;;9.60;74.61
76337;BME280;65157;50.082;18.178;2023-04-25T02:15:15;98310.22;;;9.59;74.21
76337;BME280;65157;50.082;18.178;2023-04-25T02:17:41;98308.95;;;9.56;74.21
76337;BME280;65157;50.082;18.178;2023-04-25T02:20:11;98310.98;;;9.54;74.11
76337;BME280;65157;50.082;18.178;2023-04-25T02:22:38;98311.30;;;9.52;73.67
76337;BME280;65157;50.082;18.178;2023-04-25T02:25:05;98309.21;;;9.48;73.57
76337;BME280;65157;50.082;18.178;2023-04-25T02:27:32;98310.98;;;9.48;73.40
76337;BME280;65157;50.082;18.178;2023-04-25T02:29:58;98310.46;;;9.48;73.32
76337;BME280;65157;50.082;18.178;2023-04-25T02:32:27;98312.09;;;9.47;73.19
76337;BME280;65157;50.082;18.178;2023-04-25T02:34:53;98314.19;;;9.44;72.84
76337;BME280;65157;50.082;18.178;2023-04-25T02:37:20;98308.39;;;9.37;72.68
76337;BME280;65157;50.082;18.178;2023-04-25T02:39:47;98317.95;;;9.36;72.66
76337;BME280;65157;50.082;18.178;2023-04-25T02:42:13;98316.73;;;9.33;72.18
76337;BME280;65157;50.082;18.178;2023-04-25T02:44:40;98313.20;;;9.29;72.31
76337;BME280;65157;50.082;18.178;2023-04-25T02:47:07;98312.98;;;9.27;72.62
76337;BME280;65157;50.082;18.178;2023-04-25T02:49:34;98310.59;;;9.22;72.54
76337;BME280;65157;50.082;18.178;2023-04-25T02:52:00;98312.83;;;9.20;72.68
76337;BME280;65157;50.082;18.178;2023-04-25T02:54:27;98311.13;;;9.19;72.97
76337;BME280;65157;50.082;18.178;2023-04-25T02:56:54;98307.59;;;9.19;73.15
76337;BME280;65157;50.082;18.178;2023-04-25T02:59:20;98309.48;;;9.23;73.25
76337;BME280;65157;50.082;18.178;2023-04-25T03:01:47;98309.41;;;9.21;73.03
76337;BME280;65157;50.082;18.178;2023-04-25T03:04:15;98303.16;;;9.16;73.01
76337;BME280;65157;50.082;18.178;2023-04-25T03:06:42;98303.84;;;9.13;73.28
76337;BME280;65157;50.082;18.178;2023-04-25T03:09:08;98305.29;;;9.13;73.45
76337;BME280;65157;50.082;18.178;2023-04-25T03:11:38;98308.05;;;9.10;73.64
76337;BME280;65157;50.082;18.178;2023-04-25T03:14:04;98303.12;;;9.03;73.58
76337;BME280;65157;50.082;18.178;2023-04-25T03:16:31;98310.64;;;9.04;73.55
76337;BME280;65157;50.082;18.178;2023-04-25T03:18:58;98305.77;;;9.03;73.83
76337;BME280;65157;50.082;18.178;2023-04-25T03:21:31;98303.34;;;9.02;73.89
76337;BME280;65157;50.082;18.178;2023-04-25T03:24:01;98302.51;;;9.01;73.98
76337;BME280;65157;50.082;18.178;2023-04-25T03:26:29;98298.83;;;9.01;74.02
76337;BME280;65157;50.082;18.178;2023-04-25T03:28:55;98299.98;;;8.99;74.03
76337;BME280;65157;50.082;18.178;2023-04-25T03:31:22;98297.27;;;9.00;74.04
76337;BME280;65157;50.082;18.178;2023-04-25T03:33:49;98301.86;;;9.00;73.84
76337;BME280;65157;50.082;18.178;2023-04-25T03:36:16;98302.75;;;8.96;73.79
76337;BME280;65157;50.082;18.178;2023-04-25T03:38:42;98303.95;;;8.93;74.06
76337;BME280;65157;50.082;18.178;2023-04-25T03:41:09;98303.36;;;8.92;74.23
76337;BME280;65157;50.082;18.178;2023-04-25T03:43:36;98302.86;;;8.91;74.04
76337;BME280;65157;50.082;18.178;2023-04-25T03:46:09;98308.98;;;8.88;73.96
76337;BME280;65157;50.082;18.178;2023-04-25T03:48:37;98297.99;;;8.79;73.94
76337;BME280;65157;50.082;18.178;2023-04-25T03:51:04;98308.19;;;8.80;73.85
76337;BME280;65157;50.082;18.178;2023-04-25T03:53:31;98313.42;;;8.80;73.78
76337;BME280;65157;50.082;18.178;2023-04-25T03:55:57;98310.39;;;8.81;74.05
76337;BME280;65157;50.082;18.178;2023-04-25T03:58:24;98310.81;;;8.83;73.96
76337;BME280;65157;50.082;18.178;2023-04-25T04:00:51;98312.20;;;8.84;74.04
76337;BME280;65157;50.082;18.178;2023-04-25T04:03:18;98314.45;;;8.85;73.91
76337;BME280;65157;50.082;18.178;2023-04-25T04:05:44;98318.23;;;8.83;73.81
76337;BME280;65157;50.082;18.178;2023-04-25T04:08:12;98319.71;;;8.85;73.95
76337;BME280;65157;50.082;18.178;2023-04-25T04:10:38;98323.48;;;8.87;73.97
76337;BME280;65157;50.082;18.178;2023-04-25T04:13:11;98324.03;;;8.90;73.79
76337;BME280;65157;50.082;18.178;2023-04-25T04:15:44;98326.71;;;8.89;73.73
76337;BME280;65157;50.082;18.178;2023-04-25T04:18:15;98329.48;;;8.86;73.90
76337;BME280;65157;50.082;18.178;2023-04-25T04:20:42;98307.70;;;8.75;74.00
76337;BME280;65157;50.082;18.178;2023-04-25T04:23:08;98326.65;;;8.87;74.07
76337;BME280;65157;50.082;18.178;2023-04-25T04:25:40;98326.12;;;8.90;74.02
76337;BME280;65157;50.082;18.178;2023-04-25T04:28:10;98327.02;;;8.97;74.02
76337;BME280;65157;50.082;18.178;2023-04-25T04:30:39;98325.24;;;9.00;73.87
76337;BME280;65157;50.082;18.178;2023-04-25T04:33:06;98325.97;;;9.04;74.20
76337;BME280;65157;50.082;18.178;2023-04-25T04:35:33;98324.96;;;9.10;74.15
76337;BME280;65157;50.082;18.178;2023-04-25T04:37:59;98324.60;;;9.14;74.18
76337;BME280;65157;50.082;18.178;2023-04-25T04:40:26;98326.31;;;9.18;73.94
76337;BME280;65157;50.082;18.178;2023-04-25T04:42:53;98328.05;;;9.22;73.71
76337;BME280;65157;50.082;18.178;2023-04-25T04:45:22;98329.89;;;9.20;73.53
76337;BME280;65157;50.082;18.178;2023-04-25T04:47:49;98332.71;;;9.20;73.37
76337;BME280;65157;50.082;18.178;2023-04-25T04:50:16;98334.63;;;9.24;73.50
76337;BME280;65157;50.082;18.178;2023-04-25T04:52:43;98336.21;;;9.27;73.30
76337;BME280;65157;50.082;18.178;2023-04-25T04:55:11;98337.42;;;9.27;73.52
76337;BME280;65157;50.082;18.178;2023-04-25T04:57:38;98338.75;;;9.32;73.59
76337;BME280;65157;50.082;18.178;2023-04-25T05:00:05;98340.67;;;9.36;73.65
76337;BME280;65157;50.082;18.178;2023-04-25T05:02:37;98334.00;;;9.36;73.51
76337;BME280;65157;50.082;18.178;2023-04-25T05:05:09;98339.67;;;9.42;73.32
76337;BME280;65157;50.082;18.178;2023-04-25T05:07:36;98339.93;;;9.40;73.17
76337;BME280;65157;50.082;18.178;2023-04-25T05:10:03;98338.42;;;9.35;72.95
76337;BME280;65157;50.082;18.178;2023-04-25T05:12:30;98342.41;;;9.33;73.28
76337;BME280;65157;50.082;18.178;2023-04-25T05:14:57;98333.09;;;9.30;73.08
76337;BME280;65157;50.082;18.178;2023-04-25T05:17:26;98339.14;;;9.35;73.07
76337;BME280;65157;50.082;18.178;2023-04-25T05:19:53;98341.23;;;9.35;72.88
76337;BME280;65157;50.082;18.178;2023-04-25T05:22:22;98343.08;;;9.37;72.68
76337;BME280;65157;50.082;18.178;2023-04-25T05:25:03;98339.56;;;9.37;72.60
76337;BME280;65157;50.082;18.178;2023-04-25T05:27:33;98340.70;;;9.36;72.70
76337;BME280;65157;50.082;18.178;2023-04-25T05:30:04;98339.11;;;9.36;72.24
76337;BME280;65157;50.082;18.178;2023-04-25T05:32:32;98340.55;;;9.35;72.22
76337;BME280;65157;50.082;18.178;2023-04-25T05:35:04;98339.58;;;9.37;72.21
76337;BME280;65157;50.082;18.178;2023-04-25T05:37:31;98339.55;;;9.37;71.97
76337;BME280;65157;50.082;18.178;2023-04-25T05:40:02;98342.81;;;9.36;71.76
76337;BME280;65157;50.082;18.178;2023-04-25T05:42:29;98342.43;;;9.33;71.59
76337;BME280;65157;50.082;18.178;2023-04-25T05:44:56;98338.30;;;9.31;72.20
76337;BME280;65157;50.082;18.178;2023-04-25T05:47:26;98339.71;;;9.38;71.84
76337;BME280;65157;50.082;18.178;2023-04-25T05:49:53;98343.81;;;9.40;71.76
76337;BME280;65157;50.082;18.178;2023-04-25T05:52:20;98342.84;;;9.42;71.72
76337;BME280;65157;50.082;18.178;2023-04-25T05:54:50;98341.23;;;9.45;71.68
76337;BME280;65157;50.082;18.178;2023-04-25T05:57:26;98344.60;;;9.52;71.66
76337;BME280;65157;50.082;18.178;2023-04-25T05:59:56;98342.98;;;9.56;71.12
76337;BME280;65157;50.082;18.178;2023-04-25T06:02:23;98344.75;;;9.59;71.04
76337;BME280;65157;50.082;18.178;2023-04-25T06:04:50;98345.84;;;9.65;70.86
76337;BME280;65157;50.082;18.178;2023-04-25T06:07:21;98339.78;;;9.63;69.13
76337;BME280;65157;50.082;18.178;2023-04-25T06:09:47;98344.48;;;9.67;69.53
76337;BME280;65157;50.082;18.178;2023-04-25T06:12:14;98344.55;;;9.70;69.98
76337;BME280;65157;50.082;18.178;2023-04-25T06:14:41;98347.85;;;9.74;69.34
76337;BME280;65157;50.082;18.178;2023-04-25T06:17:08;98344.53;;;9.76;69.56
76337;BME280;65157;50.082;18.178;2023-04-25T06:19:35;98341.23;;;9.75;69.92
76337;BME280;65157;50.082;18.178;2023-04-25T06:22:02;98346.98;;;9.83;68.79
76337;BME280;65157;50.082;18.178;2023-04-25T06:24:30;98341.30;;;9.87;67.94
76337;BME280;65157;50.082;18.178;2023-04-25T06:26:57;98344.63;;;9.91;66.44
76337;BME280;65157;50.082;18.178;2023-04-25T06:29:24;98345.08;;;9.89;66.58
76337;BME280;65157;50.082;18.178;2023-04-25T06:31:57;98344.17;;;9.89;67.35
76337;BME280;65157;50.082;18.178;2023-04-25T06:34:26;98348.17;;;9.91;66.88
76337;BME280;65157;50.082;18.178;2023-04-25T06:36:56;98346.44;;;9.93;67.22
76337;BME280;65157;50.082;18.178;2023-04-25T06:39:23;98346.93;;;9.97;67.02
76337;BME280;65157;50.082;18.178;2023-04-25T06:41:50;98346.54;;;10.01;67.01
76337;BME280;65157;50.082;18.178;2023-04-25T06:44:17;98347.08;;;10.07;66.71
76337;BME280;65157;50.082;18.178;2023-04-25T06:46:44;98348.44;;;10.11;65.64
76337;BME280;65157;50.082;18.178;2023-04-25T06:49:10;98349.45;;;10.12;65.79
76337;BME280;65157;50.082;18.178;2023-04-25T06:51:48;98350.72;;;10.18;66.44
76337;BME280;65157;50.082;18.178;2023-04-25T06:54:21;98349.95;;;10.26;66.15
76337;BME280;65157;50.082;18.178;2023-04-25T06:56:48;98349.25;;;10.33;65.14
76337;BME280;65157;50.082;18.178;2023-04-25T06:59:15;98345.55;;;10.35;65.27
76337;BME280;65157;50.082;18.178;2023-04-25T07:01:44;98339.77;;;10.38;65.01
76337;BME280;65157;50.082;18.178;2023-04-25T07:04:11;98340.45;;;10.42;64.65
76337;BME280;65157;50.082;18.178;2023-04-25T07:06:38;98332.76;;;10.40;63.99
76337;BME280;65157;50.082;18.178;2023-04-25T07:09:05;98339.60;;;10.44;63.87
76337;BME280;65157;50.082;18.178;2023-04-25T07:11:32;98348.74;;;10.48;64.04
76337;BME280;65157;50.082;18.178;2023-04-25T07:13:59;98349.67;;;10.50;63.94
76337;BME280;65157;50.082;18.178;2023-04-25T07:16:25;98347.58;;;10.53;64.08
76337;BME280;65157;50.082;18.178;2023-04-25T07:18:52;98338.42;;;10.49;64.13
76337;BME280;65157;50.082;18.178;2023-04-25T07:21:19;98350.09;;;10.64;63.02
76337;BME280;65157;50.082;18.178;2023-04-25T07:23:55;98348.70;;;10.67;63.02
76337;BME280;65157;50.082;18.178;2023-04-25T07:26:25;98351.23;;;10.65;61.71
76337;BME280;65157;50.082;18.178;2023-04-25T07:28:51;98350.92;;;10.62;61.59
76337;BME280;65157;50.082;18.178;2023-04-25T07:31:18;98348.48;;;10.61;61.68
76337;BME280;65157;50.082;18.178;2023-04-25T07:33:45;98347.59;;;10.62;62.31
76337;BME280;65157;50.082;18.178;2023-04-25T07:36:12;98355.48;;;10.71;62.19
76337;BME280;65157;50.082;18.178;2023-04-25T07:38:39;98350.95;;;10.77;61.37
76337;BME280;65157;50.082;18.178;2023-04-25T07:41:08;98350.14;;;10.78;61.24
76337;BME280;65157;50.082;18.178;2023-04-25T07:43:38;98348.72;;;10.82;62.10
76337;BME280;65157;50.082;18.178;2023-04-25T07:46:05;98350.96;;;10.86;61.35
76337;BME280;65157;50.082;18.178;2023-04-25T07:48:31;98346.47;;;10.90;62.18
76337;BME280;65157;50.082;18.178;2023-04-25T07:51:00;98341.31;;;10.97;62.33
76337;BME280;65157;50.082;18.178;2023-04-25T07:53:34;98325.20;;;10.95;62.05
76337;BME280;65157;50.082;18.178;2023-04-25T07:56:01;98343.89;;;11.16;62.19
76337;BME280;65157;50.082;18.178;2023-04-25T07:58:27;98347.67;;;11.18;60.39
76337;BME280;65157;50.082;18.178;2023-04-25T08:00:57;98346.23;;;11.09;59.66
76337;BME280;65157;50.082;18.178;2023-04-25T08:03:24;98343.35;;;11.04;59.69
76337;BME280;65157;50.082;18.178;2023-04-25T08:05:55;98348.82;;;11.02;60.05
76337;BME280;65157;50.082;18.178;2023-04-25T08:08:26;98348.77;;;10.99;59.24
76337;BME280;65157;50.082;18.178;2023-04-25T08:10:55;98350.45;;;10.98;59.56
76337;BME280;65157;50.082;18.178;2023-04-25T08:13:23;98348.37;;;10.94;59.99
76337;BME280;65157;50.082;18.178;2023-04-25T08:15:50;98350.05;;;10.96;61.09
76337;BME280;65157;50.082;18.178;2023-04-25T08:18:18;98353.65;;;11.03;61.14
76337;BME280;65157;50.082;18.178;2023-04-25T08:20:45;98350.77;;;11.10;60.96
76337;BME280;65157;50.082;18.178;2023-04-25T08:23:14;98352.33;;;11.17;60.65
76337;BME280;65157;50.082;18.178;2023-04-25T08:25:41;98356.81;;;11.21;60.03
76337;BME280;65157;50.082;18.178;2023-04-25T08:28:08;98356.02;;;11.23;59.77
76337;BME280;65157;50.082;18.178;2023-04-25T08:30:34;98358.63;;;11.21;59.53
76337;BME280;65157;50.082;18.178;2023-04-25T08:33:01;98358.27;;;11.21;59.13
76337;BME280;65157;50.082;18.178;2023-04-25T08:35:28;98361.47;;;11.20;60.14
76337;BME280;65157;50.082;18.178;2023-04-25T08:37:57;98350.75;;;11.22;60.80
76337;BME280;65157;50.082;18.178;2023-04-25T08:40:27;98358.38;;;11.31;60.39
76337;BME280;65157;50.082;18.178;2023-04-25T08:42:56;98358.68;;;11.38;60.38
76337;BME280;65157;50.082;18.178;2023-04-25T08:45:26;98355.11;;;11.47;60.74
76337;BME280;65157;50.082;18.178;2023-04-25T08:47:56;98357.45;;;11.61;60.87
76337;BME280;65157;50.082;18.178;2023-04-25T08:50:24;98353.69;;;11.71;60.69
76337;BME280;65157;50.082;18.178;2023-04-25T08:52:53;98362.45;;;11.86;60.69
76337;BME280;65157;50.082;18.178;2023-04-25T08:55:21;98358.70;;;11.98;60.35
76337;BME280;65157;50.082;18.178;2023-04-25T08:57:49;98358.45;;;12.08;59.72
76337;BME280;65157;50.082;18.178;2023-04-25T09:00:18;98344.61;;;12.09;58.97
76337;BME280;65157;50.082;18.178;2023-04-25T09:02:48;98357.66;;;12.21;58.64
76337;BME280;65157;50.082;18.178;2023-04-25T09:05:18;98359.44;;;12.26;58.27
76337;BME280;65157;50.082;18.178;2023-04-25T09:07:49;98356.49;;;12.33;59.04
76337;BME280;65157;50.082;18.178;2023-04-25T09:10:16;98358.14;;;12.40;57.87
76337;BME280;65157;50.082;18.178;2023-04-25T09:12:43;98358.02;;;12.48;58.52
76337;BME280;65157;50.082;18.178;2023-04-25T09:15:12;98352.27;;;12.52;58.56
76337;BME280;65157;50.082;18.178;2023-04-25T09:17:41;98353.77;;;12.72;58.21
76337;BME280;65157;50.082;18.178;2023-04-25T09:20:13;98347.15;;;12.81;58.16
76337;BME280;65157;50.082;18.178;2023-04-25T09:22:45;98352.58;;;12.95;58.06
76337;BME280;65157;50.082;18.178;2023-04-25T09:25:12;98346.04;;;13.01;56.81
76337;BME280;65157;50.082;18.178;2023-04-25T09:27:50;98341.39;;;13.07;56.99
76337;BME280;65157;50.082;18.178;2023-04-25T09:30:17;98350.04;;;13.21;56.91
76337;BME280;65157;50.082;18.178;2023-04-25T09:33:08;98346.49;;;13.24;55.51
76337;BME280;65157;50.082;18.178;2023-04-25T09:35:39;98343.66;;;13.18;56.72
76337;BME280;65157;50.082;18.178;2023-04-25T09:38:13;98340.58;;;13.22;56.32
76337;BME280;65157;50.082;18.178;2023-04-25T09:40:42;98343.86;;;13.31;56.25
76337;BME280;65157;50.082;18.178;2023-04-25T09:43:18;98344.77;;;13.35;55.13
76337;BME280;65157;50.082;18.178;2023-04-25T09:45:54;98345.59;;;13.32;55.11
76337;BME280;65157;50.082;18.178;2023-04-25T09:48:21;98347.05;;;13.36;55.78
76337;BME280;65157;50.082;18.178;2023-04-25T09:51:10;98346.45;;;13.40;54.72
76337;BME280;65157;50.082;18.178;2023-04-25T09:53:52;98344.79;;;13.46;55.97
76337;BME280;65157;50.082;18.178;2023-04-25T09:56:22;98345.27;;;13.54;55.05
76337;BME280;65157;50.082;18.178;2023-04-25T09:58:50;98343.78;;;13.58;55.40
76337;BME280;65157;50.082;18.178;2023-04-25T10:01:19;98341.76;;;13.64;55.12
76337;BME280;65157;50.082;18.178;2023-04-25T10:03:49;98338.48;;;13.63;54.19
76337;BME280;65157;50.082;18.178;2023-04-25T10:06:25;98335.43;;;13.63;54.73
76337;BME280;65157;50.082;18.178;2023-04-25T10:08:52;98337.73;;;13.71;56.00
76337;BME280;65157;50.082;18.178;2023-04-25T10:11:28;98342.45;;;13.85;56.04
76337;BME280;65157;50.082;18.178;2023-04-25T10:13:57;98339.02;;;13.95;55.11
76337;BME280;65157;50.082;18.178;2023-04-25T10:16:24;98338.91;;;14.02;55.21
76337;BME280;65157;50.082;18.178;2023-04-25T10:18:51;98338.93;;;14.06;54.90
76337;BME280;65157;50.082;18.178;2023-04-25T10:21:20;98332.16;;;14.14;54.58
76337;BME280;65157;50.082;18.178;2023-04-25T10:23:49;98333.11;;;14.13;53.69
76337;BME280;65157;50.082;18.178;2023-04-25T10:26:16;98333.02;;;14.20;54.46
76337;BME280;65157;50.082;18.178;2023-04-25T10:28:58;98333.02;;;14.32;54.70
76337;BME280;65157;50.082;18.178;2023-04-25T10:31:25;98331.30;;;14.46;53.66
76337;BME280;65157;50.082;18.178;2023-04-25T10:33:53;98327.14;;;14.47;52.92
76337;BME280;65157;50.082;18.178;2023-04-25T10:36:21;98328.26;;;14.44;51.56
76337;BME280;65157;50.082;18.178;2023-04-25T10:38:50;98330.29;;;14.41;52.90
76337;BME280;65157;50.082;18.178;2023-04-25T10:41:21;98324.42;;;14.46;52.70
76337;BME280;65157;50.082;18.178;2023-04-25T10:43:50;98320.98;;;14.58;54.03
76337;BME280;65157;50.082;18.178;2023-04-25T10:46:29;98317.50;;;14.82;53.58
76337;BME280;65157;50.082;18.178;2023-04-25T10:49:00;98317.14;;;15.00;52.99
76337;BME280;65157;50.082;18.178;2023-04-25T10:51:28;98316.90;;;15.15;53.10
76337;BME280;65157;50.082;18.178;2023-04-25T10:56:25;98311.02;;;15.41;52.22
76337;BME280;65157;50.082;18.178;2023-04-25T10:59:03;98318.71;;;15.52;52.50
76337;BME280;65157;50.082;18.178;2023-04-25T11:01:39;98320.35;;;15.61;51.72
76337;BME280;65157;50.082;18.178;2023-04-25T11:04:06;98322.95;;;15.59;51.12
76337;BME280;65157;50.082;18.178;2023-04-25T11:09:24;98320.55;;;15.56;51.18
76337;BME280;65157;50.082;18.178;2023-04-25T11:11:54;98313.56;;;15.54;51.91
76337;BME280;65157;50.082;18.178;2023-04-25T11:14:22;98320.21;;;15.63;51.24
76337;BME280;65157;50.082;18.178;2023-04-25T11:16:59;98317.13;;;15.57;49.01
76337;BME280;65157;50.082;18.178;2023-04-25T11:19:26;98313.25;;;15.28;49.02
76337;BME280;65157;50.082;18.178;2023-04-25T11:22:00;98315.40;;;15.09;49.87
76337;BME280;65157;50.082;18.178;2023-04-25T11:24:32;98314.23;;;15.06;50.79
76337;BME280;65157;50.082;18.178;2023-04-25T11:27:03;98317.27;;;15.08;51.63
76337;BME280;65157;50.082;18.178;2023-04-25T11:29:32;98315.35;;;15.14;50.97
76337;BME280;65157;50.082;18.178;2023-04-25T11:32:00;98313.72;;;15.22;50.63
76337;BME280;65157;50.082;18.178;2023-04-25T11:34:28;98305.52;;;15.22;50.03
76337;BME280;65157;50.082;18.178;2023-04-25T11:36:55;98313.64;;;15.28;49.66
76337;BME280;65157;50.082;18.178;2023-04-25T11:39:23;98313.61;;;15.33;50.76
76337;BME280;65157;50.082;18.178;2023-04-25T11:41:51;98315.73;;;15.42;50.46
76337;BME280;65157;50.082;18.178;2023-04-25T11:44:19;98317.67;;;15.52;50.15
76337;BME280;65157;50.082;18.178;2023-04-25T11:46:46;98312.77;;;15.65;49.80
76337;BME280;65157;50.082;18.178;2023-04-25T11:49:15;98316.46;;;15.81;49.65
76337;BME280;65157;50.082;18.178;2023-04-25T11:51:47;98311.83;;;15.95;48.95
76337;BME280;65157;50.082;18.178;2023-04-25T11:54:19;98312.52;;;16.08;49.16
76337;BME280;65157;50.082;18.178;2023-04-25T11:56:46;98309.70;;;16.15;48.50
76337;BME280;65157;50.082;18.178;2023-04-25T11:59:13;98310.53;;;16.15;47.58
76337;BME280;65157;50.082;18.178;2023-04-25T12:01:41;98309.29;;;16.09;47.00
76337;BME280;65157;50.082;18.178;2023-04-25T12:04:23;98298.90;;;16.07;48.28
76337;BME280;65157;50.082;18.178;2023-04-25T12:06:53;98302.55;;;16.19;48.15
76337;BME280;65157;50.082;18.178;2023-04-25T12:09:28;98295.23;;;16.19;48.39
76337;BME280;65157;50.082;18.178;2023-04-25T12:11:59;98297.56;;;16.41;48.26
76337;BME280;65157;50.082;18.178;2023-04-25T12:14:28;98290.75;;;16.57;48.40
76337;BME280;65157;50.082;18.178;2023-04-25T12:16:57;98287.04;;;16.57;47.53
76337;BME280;65157;50.082;18.178;2023-04-25T12:19:25;98286.20;;;16.67;47.40
76337;BME280;65157;50.082;18.178;2023-04-25T12:21:52;98287.27;;;16.63;45.47
76337;BME280;65157;50.082;18.178;2023-04-25T12:24:24;98287.77;;;16.50;45.78
76337;BME280;65157;50.082;18.178;2023-04-25T12:26:53;98284.44;;;16.52;46.68
76337;BME280;65157;50.082;18.178;2023-04-25T12:29:24;98286.48;;;16.66;47.63
76337;BME280;65157;50.082;18.178;2023-04-25T12:31:52;98284.04;;;16.72;46.94
76337;BME280;65157;50.082;18.178;2023-04-25T12:34:21;98277.48;;;16.71;47.29
76337;BME280;65157;50.082;18.178;2023-04-25T12:36:48;98282.23;;;16.74;46.38
76337;BME280;65157;50.082;18.178;2023-04-25T12:39:20;98279.11;;;16.69;46.72
76337;BME280;65157;50.082;18.178;2023-04-25T12:41:50;98274.00;;;16.64;45.87
76337;BME280;65157;50.082;18.178;2023-04-25T12:44:20;98273.98;;;16.51;46.60
76337;BME280;65157;50.082;18.178;2023-04-25T12:46:48;98273.73;;;16.45;47.17
76337;BME280;65157;50.082;18.178;2023-04-25T12:49:15;98274.08;;;16.48;47.55
76337;BME280;65157;50.082;18.178;2023-04-25T12:51:44;98273.44;;;16.53;48.18
76337;BME280;65157;50.082;18.178;2023-04-25T12:54:17;98273.23;;;16.65;48.44
76337;BME280;65157;50.082;18.178;2023-04-25T12:56:44;98272.48;;;16.78;48.20
76337;BME280;65157;50.082;18.178;2023-04-25T12:59:10;98272.08;;;16.82;47.33
76337;BME280;65157;50.082;18.178;2023-04-25T13:01:37;98269.73;;;16.76;46.76
76337;BME280;65157;50.082;18.178;2023-04-25T13:04:04;98270.84;;;16.70;47.22
76337;BME280;65157;50.082;18.178;2023-04-25T13:06:30;98269.23;;;16.68;47.53
76337;BME280;65157;50.082;18.178;2023-04-25T13:08:57;98265.36;;;16.63;47.82